Capitol Logistics 784


RKSI
Incheon International Airport
Seoul, KR
VVTS
Tan Son Nhat International Airport
Ho Chi Minh City, VN

Activity Log

Date Flight Route Aircraft Duration
No Flights Yet

Route Details

Aircraft Information
Primary: Boeing 767-300BDSF
Backup: Not Available
Route Data
Distance: 2216nm
Sched. Duration: 5h 20m
Avg. Duration: 0h 00m (-520m)
Times Flown: 0
Recm'd Route: BOPTA1K BOPTA Z51 BEDES Y711 MUGUS Y742 SALMI Q11 DRAKE Q11 TACLE Q12 KABAM N892 MESOX Q15 CRA W2 PTH BAOMY1F
Planned Altitude: 36,000ft
Origin Wx: RKSI 061030Z 30005KT 9999 SCT045 BKN120 23/17 Q1000 NOSIG
Dest. Wx: VVTS 061030Z 17006KT 130V200 9999 SCT015 SCT050 29/25 Q1005 NOSIG
Notes:

Financial History
Total Freight: 0lbs
Average Load: 0lbs/flt
Fuel Used: 0lbs
Avg. Fuel Used: 0lbs/flt
Fuel Expense: $0
Avg. Fuel Expense: $0
Avg. Fuel Cost: $0/lbs
Total Gross Income: $0
Pilot Pay: $0
Total Expenses: $0
Total Revenue: $0
Average Revenue: $0